sensor_id;sensor_type;location;lat;lon;timestamp;P1;durP1;ratioP1;P2;durP2;ratioP2
12900;SDS011;6518;50.930;5.344;2023-01-13T00:01:27;2.00;;;0.80;;
12900;SDS011;6518;50.930;5.344;2023-01-13T00:03:54;4.83;;;1.20;;
12900;SDS011;6518;50.930;5.344;2023-01-13T00:06:23;5.17;;;1.37;;
12900;SDS011;6518;50.930;5.344;2023-01-13T00:08:51;8.30;;;1.93;;
12900;SDS011;6518;50.930;5.344;2023-01-13T00:11:18;6.53;;;1.30;;
12900;SDS011;6518;50.930;5.344;2023-01-13T00:13:46;5.27;;;1.70;;
12900;SDS011;6518;50.930;5.344;2023-01-13T00:16:16;4.47;;;1.37;;
12900;SDS011;6518;50.930;5.344;2023-01-13T00:18:43;3.33;;;1.03;;
12900;SDS011;6518;50.930;5.344;2023-01-13T00:21:11;9.53;;;1.40;;
12900;SDS011;6518;50.930;5.344;2023-01-13T00:23:39;2.50;;;1.30;;
12900;SDS011;6518;50.930;5.344;2023-01-13T00:26:07;8.60;;;1.50;;
12900;SDS011;6518;50.930;5.344;2023-01-13T00:28:36;5.83;;;1.20;;
12900;SDS011;6518;50.930;5.344;2023-01-13T00:31:03;8.60;;;1.67;;
12900;SDS011;6518;50.930;5.344;2023-01-13T00:33:32;4.93;;;1.37;;
12900;SDS011;6518;50.930;5.344;2023-01-13T00:36:00;5.10;;;1.27;;
12900;SDS011;6518;50.930;5.344;2023-01-13T00:38:29;5.67;;;1.23;;
12900;SDS011;6518;50.930;5.344;2023-01-13T00:40:58;9.10;;;1.20;;
12900;SDS011;6518;50.930;5.344;2023-01-13T00:43:26;6.03;;;1.43;;
12900;SDS011;6518;50.930;5.344;2023-01-13T00:45:53;5.17;;;1.40;;
12900;SDS011;6518;50.930;5.344;2023-01-13T00:48:21;6.07;;;1.67;;
12900;SDS011;6518;50.930;5.344;2023-01-13T00:50:54;6.93;;;1.27;;
12900;SDS011;6518;50.930;5.344;2023-01-13T00:53:22;5.40;;;1.47;;
12900;SDS011;6518;50.930;5.344;2023-01-13T00:55:49;6.90;;;1.50;;
12900;SDS011;6518;50.930;5.344;2023-01-13T00:58:23;8.03;;;1.70;;
12900;SDS011;6518;50.930;5.344;2023-01-13T01:00:50;6.43;;;1.67;;
12900;SDS011;6518;50.930;5.344;2023-01-13T01:03:16;10.37;;;1.67;;
12900;SDS011;6518;50.930;5.344;2023-01-13T01:05:43;5.77;;;1.37;;
12900;SDS011;6518;50.930;5.344;2023-01-13T01:08:11;10.20;;;1.70;;
12900;SDS011;6518;50.930;5.344;2023-01-13T01:10:38;6.47;;;1.77;;
12900;SDS011;6518;50.930;5.344;2023-01-13T01:13:05;5.00;;;1.87;;
12900;SDS011;6518;50.930;5.344;2023-01-13T01:15:31;11.50;;;1.70;;
12900;SDS011;6518;50.930;5.344;2023-01-13T01:17:58;11.80;;;1.77;;
12900;SDS011;6518;50.930;5.344;2023-01-13T01:20:25;11.50;;;2.37;;
12900;SDS011;6518;50.930;5.344;2023-01-13T01:22:52;11.03;;;3.33;;
12900;SDS011;6518;50.930;5.344;2023-01-13T01:25:20;11.77;;;2.50;;
12900;SDS011;6518;50.930;5.344;2023-01-13T01:27:47;11.83;;;2.20;;
12900;SDS011;6518;50.930;5.344;2023-01-13T01:30:14;15.13;;;2.20;;
12900;SDS011;6518;50.930;5.344;2023-01-13T01:32:40;11.63;;;2.70;;
12900;SDS011;6518;50.930;5.344;2023-01-13T01:35:07;14.67;;;2.60;;
12900;SDS011;6518;50.930;5.344;2023-01-13T01:37:34;12.13;;;2.47;;
12900;SDS011;6518;50.930;5.344;2023-01-13T01:40:01;11.30;;;2.10;;
12900;SDS011;6518;50.930;5.344;2023-01-13T01:42:29;9.17;;;1.60;;
12900;SDS011;6518;50.930;5.344;2023-01-13T01:45:16;7.47;;;1.40;;
12900;SDS011;6518;50.930;5.344;2023-01-13T01:47:44;6.50;;;1.30;;
12900;SDS011;6518;50.930;5.344;2023-01-13T01:50:17;6.50;;;1.27;;
12900;SDS011;6518;50.930;5.344;2023-01-13T01:52:45;4.13;;;1.10;;
12900;SDS011;6518;50.930;5.344;2023-01-13T01:55:17;6.50;;;1.13;;
12900;SDS011;6518;50.930;5.344;2023-01-13T01:57:47;5.47;;;1.30;;
12900;SDS011;6518;50.930;5.344;2023-01-13T02:00:17;7.10;;;1.20;;
12900;SDS011;6518;50.930;5.344;2023-01-13T02:02:45;4.07;;;1.23;;
12900;SDS011;6518;50.930;5.344;2023-01-13T02:05:14;2.80;;;1.10;;
12900;SDS011;6518;50.930;5.344;2023-01-13T02:07:42;7.03;;;1.33;;
12900;SDS011;6518;50.930;5.344;2023-01-13T02:10:13;5.50;;;1.30;;
12900;SDS011;6518;50.930;5.344;2023-01-13T02:12:43;3.87;;;1.20;;
12900;SDS011;6518;50.930;5.344;2023-01-13T02:15:12;8.20;;;1.60;;
12900;SDS011;6518;50.930;5.344;2023-01-13T02:17:44;5.83;;;1.50;;
12900;SDS011;6518;50.930;5.344;2023-01-13T02:32:49;9.03;;;2.13;;
12900;SDS011;6518;50.930;5.344;2023-01-13T02:35:29;7.23;;;1.80;;
12900;SDS011;6518;50.930;5.344;2023-01-13T02:38:01;5.03;;;1.30;;
12900;SDS011;6518;50.930;5.344;2023-01-13T02:40:31;6.57;;;1.90;;
12900;SDS011;6518;50.930;5.344;2023-01-13T02:43:03;8.23;;;1.83;;
12900;SDS011;6518;50.930;5.344;2023-01-13T02:45:54;7.27;;;1.80;;
12900;SDS011;6518;50.930;5.344;2023-01-13T02:48:26;8.93;;;1.70;;
12900;SDS011;6518;50.930;5.344;2023-01-13T02:51:02;6.67;;;1.53;;
12900;SDS011;6518;50.930;5.344;2023-01-13T02:53:32;7.80;;;1.63;;
12900;SDS011;6518;50.930;5.344;2023-01-13T02:56:03;9.10;;;1.60;;
12900;SDS011;6518;50.930;5.344;2023-01-13T02:58:31;12.53;;;4.10;;
12900;SDS011;6518;50.930;5.344;2023-01-13T03:01:04;7.73;;;1.60;;
12900;SDS011;6518;50.930;5.344;2023-01-13T03:03:30;6.07;;;1.77;;
12900;SDS011;6518;50.930;5.344;2023-01-13T03:05:59;7.40;;;1.80;;
12900;SDS011;6518;50.930;5.344;2023-01-13T03:08:36;10.70;;;2.07;;
12900;SDS011;6518;50.930;5.344;2023-01-13T03:11:07;8.53;;;1.90;;
12900;SDS011;6518;50.930;5.344;2023-01-13T03:13:50;8.97;;;1.63;;
12900;SDS011;6518;50.930;5.344;2023-01-13T03:16:28;10.03;;;1.93;;
12900;SDS011;6518;50.930;5.344;2023-01-13T03:19:10;9.97;;;2.00;;
12900;SDS011;6518;50.930;5.344;2023-01-13T03:21:46;13.43;;;2.57;;
12900;SDS011;6518;50.930;5.344;2023-01-13T03:24:20;14.40;;;1.90;;
12900;SDS011;6518;50.930;5.344;2023-01-13T03:26:51;7.83;;;2.20;;
12900;SDS011;6518;50.930;5.344;2023-01-13T03:29:26;9.43;;;2.03;;
12900;SDS011;6518;50.930;5.344;2023-01-13T03:32:02;9.77;;;2.00;;
12900;SDS011;6518;50.930;5.344;2023-01-13T03:34:34;14.73;;;2.40;;
12900;SDS011;6518;50.930;5.344;2023-01-13T03:37:08;16.10;;;2.73;;
12900;SDS011;6518;50.930;5.344;2023-01-13T03:39:38;15.67;;;2.17;;
12900;SDS011;6518;50.930;5.344;2023-01-13T03:42:09;13.03;;;2.60;;
12900;SDS011;6518;50.930;5.344;2023-01-13T03:44:43;12.37;;;2.60;;
12900;SDS011;6518;50.930;5.344;2023-01-13T03:47:14;15.77;;;2.53;;
12900;SDS011;6518;50.930;5.344;2023-01-13T03:49:47;12.37;;;2.77;;
12900;SDS011;6518;50.930;5.344;2023-01-13T03:52:20;9.93;;;2.03;;
12900;SDS011;6518;50.930;5.344;2023-01-13T03:54:50;13.33;;;2.47;;
12900;SDS011;6518;50.930;5.344;2023-01-13T03:57:22;8.43;;;2.37;;
12900;SDS011;6518;50.930;5.344;2023-01-13T03:59:53;10.53;;;2.07;;
12900;SDS011;6518;50.930;5.344;2023-01-13T04:02:27;10.67;;;2.40;;
12900;SDS011;6518;50.930;5.344;2023-01-13T04:05:03;11.73;;;2.33;;
12900;SDS011;6518;50.930;5.344;2023-01-13T04:07:36;12.07;;;2.20;;
12900;SDS011;6518;50.930;5.344;2023-01-13T04:10:11;11.17;;;3.07;;
12900;SDS011;6518;50.930;5.344;2023-01-13T04:12:43;10.30;;;2.10;;
12900;SDS011;6518;50.930;5.344;2023-01-13T04:15:30;11.23;;;2.23;;
12900;SDS011;6518;50.930;5.344;2023-01-13T04:18:14;10.50;;;2.20;;
12900;SDS011;6518;50.930;5.344;2023-01-13T04:20:43;8.77;;;2.00;;
12900;SDS011;6518;50.930;5.344;2023-01-13T04:23:12;8.93;;;2.10;;
12900;SDS011;6518;50.930;5.344;2023-01-13T04:25:39;9.50;;;1.80;;
12900;SDS011;6518;50.930;5.344;2023-01-13T04:28:06;8.57;;;2.03;;
12900;SDS011;6518;50.930;5.344;2023-01-13T04:30:34;6.57;;;1.87;;
12900;SDS011;6518;50.930;5.344;2023-01-13T04:33:01;9.90;;;1.90;;
12900;SDS011;6518;50.930;5.344;2023-01-13T04:35:30;7.53;;;1.90;;
12900;SDS011;6518;50.930;5.344;2023-01-13T04:37:59;7.80;;;1.80;;
12900;SDS011;6518;50.930;5.344;2023-01-13T04:40:26;9.47;;;1.60;;
12900;SDS011;6518;50.930;5.344;2023-01-13T04:42:53;12.60;;;2.10;;
12900;SDS011;6518;50.930;5.344;2023-01-13T04:45:20;9.43;;;2.00;;
12900;SDS011;6518;50.930;5.344;2023-01-13T04:47:46;7.97;;;1.93;;
12900;SDS011;6518;50.930;5.344;2023-01-13T04:50:13;7.90;;;2.07;;
12900;SDS011;6518;50.930;5.344;2023-01-13T04:52:45;7.53;;;1.90;;
12900;SDS011;6518;50.930;5.344;2023-01-13T04:55:12;13.07;;;2.23;;
12900;SDS011;6518;50.930;5.344;2023-01-13T04:57:39;9.33;;;1.83;;
12900;SDS011;6518;50.930;5.344;2023-01-13T05:00:08;6.80;;;1.93;;
12900;SDS011;6518;50.930;5.344;2023-01-13T05:02:36;6.67;;;1.60;;
12900;SDS011;6518;50.930;5.344;2023-01-13T05:05:04;12.50;;;2.07;;
12900;SDS011;6518;50.930;5.344;2023-01-13T05:07:31;7.23;;;1.70;;
12900;SDS011;6518;50.930;5.344;2023-01-13T05:09:59;10.83;;;2.17;;
12900;SDS011;6518;50.930;5.344;2023-01-13T05:12:26;9.73;;;2.03;;
12900;SDS011;6518;50.930;5.344;2023-01-13T05:15:11;9.40;;;2.03;;
12900;SDS011;6518;50.930;5.344;2023-01-13T05:17:56;9.53;;;1.90;;
12900;SDS011;6518;50.930;5.344;2023-01-13T05:20:23;8.20;;;2.30;;
12900;SDS011;6518;50.930;5.344;2023-01-13T05:22:50;8.13;;;2.20;;
12900;SDS011;6518;50.930;5.344;2023-01-13T05:25:36;7.60;;;2.20;;
12900;SDS011;6518;50.930;5.344;2023-01-13T05:28:05;8.07;;;1.87;;
12900;SDS011;6518;50.930;5.344;2023-01-13T05:30:35;9.63;;;1.63;;
12900;SDS011;6518;50.930;5.344;2023-01-13T05:33:03;7.70;;;1.53;;
12900;SDS011;6518;50.930;5.344;2023-01-13T05:35:30;10.80;;;2.17;;
12900;SDS011;6518;50.930;5.344;2023-01-13T05:37:57;7.53;;;1.87;;
12900;SDS011;6518;50.930;5.344;2023-01-13T05:40:23;9.83;;;1.77;;
12900;SDS011;6518;50.930;5.344;2023-01-13T05:43:09;8.13;;;1.90;;
12900;SDS011;6518;50.930;5.344;2023-01-13T05:45:49;6.67;;;1.60;;
12900;SDS011;6518;50.930;5.344;2023-01-13T05:48:19;11.17;;;2.20;;
12900;SDS011;6518;50.930;5.344;2023-01-13T05:50:47;9.53;;;1.77;;
12900;SDS011;6518;50.930;5.344;2023-01-13T05:53:14;8.13;;;1.70;;
12900;SDS011;6518;50.930;5.344;2023-01-13T05:55:42;6.40;;;1.50;;
12900;SDS011;6518;50.930;5.344;2023-01-13T05:58:12;7.73;;;1.87;;
12900;SDS011;6518;50.930;5.344;2023-01-13T06:00:40;9.47;;;1.70;;
12900;SDS011;6518;50.930;5.344;2023-01-13T06:03:07;5.77;;;1.60;;
12900;SDS011;6518;50.930;5.344;2023-01-13T06:05:35;5.87;;;1.60;;
12900;SDS011;6518;50.930;5.344;2023-01-13T06:08:04;9.90;;;2.33;;
12900;SDS011;6518;50.930;5.344;2023-01-13T06:10:32;8.57;;;1.77;;
12900;SDS011;6518;50.930;5.344;2023-01-13T06:13:00;11.17;;;1.70;;
12900;SDS011;6518;50.930;5.344;2023-01-13T06:15:28;8.90;;;1.80;;
12900;SDS011;6518;50.930;5.344;2023-01-13T06:17:55;7.17;;;1.43;;
12900;SDS011;6518;50.930;5.344;2023-01-13T06:20:22;11.00;;;2.30;;
12900;SDS011;6518;50.930;5.344;2023-01-13T06:22:50;7.00;;;1.70;;
12900;SDS011;6518;50.930;5.344;2023-01-13T06:25:20;9.80;;;1.80;;
12900;SDS011;6518;50.930;5.344;2023-01-13T06:27:52;10.33;;;2.10;;
12900;SDS011;6518;50.930;5.344;2023-01-13T06:30:20;8.43;;;1.97;;
12900;SDS011;6518;50.930;5.344;2023-01-13T06:32:49;8.43;;;1.83;;
12900;SDS011;6518;50.930;5.344;2023-01-13T06:35:20;6.50;;;1.50;;
12900;SDS011;6518;50.930;5.344;2023-01-13T06:37:51;6.97;;;1.23;;
12900;SDS011;6518;50.930;5.344;2023-01-13T06:40:20;6.73;;;1.40;;
12900;SDS011;6518;50.930;5.344;2023-01-13T06:42:47;7.43;;;1.60;;
12900;SDS011;6518;50.930;5.344;2023-01-13T06:45:35;7.83;;;1.73;;
12900;SDS011;6518;50.930;5.344;2023-01-13T06:48:07;9.40;;;1.87;;
12900;SDS011;6518;50.930;5.344;2023-01-13T06:50:33;6.53;;;1.57;;
12900;SDS011;6518;50.930;5.344;2023-01-13T06:53:00;7.77;;;1.57;;
12900;SDS011;6518;50.930;5.344;2023-01-13T06:55:27;7.37;;;1.60;;
12900;SDS011;6518;50.930;5.344;2023-01-13T06:57:55;11.00;;;1.70;;
12900;SDS011;6518;50.930;5.344;2023-01-13T07:00:24;5.27;;;1.50;;
12900;SDS011;6518;50.930;5.344;2023-01-13T07:02:51;7.73;;;1.90;;
12900;SDS011;6518;50.930;5.344;2023-01-13T07:05:20;6.80;;;1.60;;
12900;SDS011;6518;50.930;5.344;2023-01-13T07:07:47;5.27;;;1.30;;
12900;SDS011;6518;50.930;5.344;2023-01-13T07:10:14;8.83;;;1.80;;
12900;SDS011;6518;50.930;5.344;2023-01-13T07:12:46;10.37;;;2.20;;
12900;SDS011;6518;50.930;5.344;2023-01-13T07:15:31;9.10;;;1.87;;
12900;SDS011;6518;50.930;5.344;2023-01-13T07:17:58;10.60;;;2.43;;
12900;SDS011;6518;50.930;5.344;2023-01-13T07:20:27;12.40;;;2.20;;
12900;SDS011;6518;50.930;5.344;2023-01-13T07:22:54;10.30;;;2.30;;
12900;SDS011;6518;50.930;5.344;2023-01-13T07:25:22;10.00;;;2.13;;
12900;SDS011;6518;50.930;5.344;2023-01-13T07:27:49;14.67;;;2.40;;
12900;SDS011;6518;50.930;5.344;2023-01-13T07:30:16;9.03;;;2.00;;
12900;SDS011;6518;50.930;5.344;2023-01-13T07:32:43;12.83;;;3.10;;
12900;SDS011;6518;50.930;5.344;2023-01-13T07:35:10;14.47;;;2.87;;
12900;SDS011;6518;50.930;5.344;2023-01-13T07:37:38;13.30;;;2.40;;
12900;SDS011;6518;50.930;5.344;2023-01-13T07:40:06;17.07;;;3.23;;
12900;SDS011;6518;50.930;5.344;2023-01-13T07:42:36;13.33;;;3.17;;
12900;SDS011;6518;50.930;5.344;2023-01-13T07:45:21;14.80;;;2.63;;
12900;SDS011;6518;50.930;5.344;2023-01-13T07:47:49;12.57;;;2.73;;
12900;SDS011;6518;50.930;5.344;2023-01-13T07:50:18;14.10;;;3.27;;
12900;SDS011;6518;50.930;5.344;2023-01-13T07:52:47;14.80;;;3.20;;
12900;SDS011;6518;50.930;5.344;2023-01-13T07:55:14;11.13;;;2.60;;
12900;SDS011;6518;50.930;5.344;2023-01-13T07:57:41;12.30;;;2.17;;
12900;SDS011;6518;50.930;5.344;2023-01-13T08:00:08;15.17;;;3.10;;
12900;SDS011;6518;50.930;5.344;2023-01-13T08:02:36;15.03;;;3.07;;
12900;SDS011;6518;50.930;5.344;2023-01-13T08:05:03;13.67;;;2.93;;
12900;SDS011;6518;50.930;5.344;2023-01-13T08:07:30;13.33;;;2.70;;
12900;SDS011;6518;50.930;5.344;2023-01-13T08:09:58;16.30;;;2.40;;
12900;SDS011;6518;50.930;5.344;2023-01-13T08:12:25;14.40;;;2.73;;
12900;SDS011;6518;50.930;5.344;2023-01-13T08:15:11;11.47;;;2.50;;
12900;SDS011;6518;50.930;5.344;2023-01-13T08:17:37;17.17;;;2.93;;
12900;SDS011;6518;50.930;5.344;2023-01-13T08:20:05;19.33;;;3.13;;
12900;SDS011;6518;50.930;5.344;2023-01-13T08:22:32;11.90;;;2.97;;
12900;SDS011;6518;50.930;5.344;2023-01-13T08:25:01;20.73;;;3.30;;
12900;SDS011;6518;50.930;5.344;2023-01-13T08:27:28;13.60;;;2.90;;
12900;SDS011;6518;50.930;5.344;2023-01-13T08:29:54;15.70;;;3.30;;
12900;SDS011;6518;50.930;5.344;2023-01-13T08:32:21;17.03;;;2.87;;
12900;SDS011;6518;50.930;5.344;2023-01-13T08:34:48;12.00;;;2.83;;
12900;SDS011;6518;50.930;5.344;2023-01-13T08:37:15;17.80;;;2.73;;
12900;SDS011;6518;50.930;5.344;2023-01-13T08:39:41;13.17;;;3.03;;
12900;SDS011;6518;50.930;5.344;2023-01-13T08:42:10;16.10;;;3.37;;
12900;SDS011;6518;50.930;5.344;2023-01-13T08:44:36;13.27;;;3.13;;
12900;SDS011;6518;50.930;5.344;2023-01-13T08:47:03;17.47;;;3.70;;
12900;SDS011;6518;50.930;5.344;2023-01-13T08:49:30;17.17;;;2.97;;
12900;SDS011;6518;50.930;5.344;2023-01-13T08:51:57;18.10;;;3.57;;
12900;SDS011;6518;50.930;5.344;2023-01-13T08:54:24;19.70;;;3.00;;
12900;SDS011;6518;50.930;5.344;2023-01-13T08:56:51;18.27;;;3.40;;
12900;SDS011;6518;50.930;5.344;2023-01-13T08:59:19;16.83;;;2.97;;
12900;SDS011;6518;50.930;5.344;2023-01-13T09:01:46;13.77;;;3.07;;
12900;SDS011;6518;50.930;5.344;2023-01-13T09:04:14;18.67;;;3.40;;
12900;SDS011;6518;50.930;5.344;2023-01-13T09:06:43;10.93;;;2.53;;
12900;SDS011;6518;50.930;5.344;2023-01-13T09:09:12;13.60;;;3.00;;
12900;SDS011;6518;50.930;5.344;2023-01-13T09:11:39;17.77;;;3.50;;
12900;SDS011;6518;50.930;5.344;2023-01-13T09:14:28;17.80;;;3.47;;
12900;SDS011;6518;50.930;5.344;2023-01-13T09:16:56;17.60;;;3.00;;
12900;SDS011;6518;50.930;5.344;2023-01-13T09:19:23;15.33;;;2.93;;
12900;SDS011;6518;50.930;5.344;2023-01-13T09:21:50;10.20;;;2.87;;
12900;SDS011;6518;50.930;5.344;2023-01-13T09:24:17;14.77;;;3.37;;
12900;SDS011;6518;50.930;5.344;2023-01-13T09:26:44;15.77;;;3.10;;
12900;SDS011;6518;50.930;5.344;2023-01-13T09:29:11;14.00;;;2.53;;
12900;SDS011;6518;50.930;5.344;2023-01-13T09:31:39;13.60;;;3.63;;
12900;SDS011;6518;50.930;5.344;2023-01-13T09:34:07;16.70;;;3.13;;
12900;SDS011;6518;50.930;5.344;2023-01-13T09:36:58;16.10;;;3.23;;
12900;SDS011;6518;50.930;5.344;2023-01-13T09:39:29;9.60;;;2.43;;
12900;SDS011;6518;50.930;5.344;2023-01-13T09:42:01;14.93;;;3.63;;
12900;SDS011;6518;50.930;5.344;2023-01-13T09:44:54;24.10;;;4.37;;
12900;SDS011;6518;50.930;5.344;2023-01-13T09:47:30;12.67;;;3.20;;
12900;SDS011;6518;50.930;5.344;2023-01-13T09:50:07;15.67;;;3.43;;
12900;SDS011;6518;50.930;5.344;2023-01-13T09:52:45;14.90;;;3.30;;
12900;SDS011;6518;50.930;5.344;2023-01-13T09:55:13;15.57;;;3.40;;
12900;SDS011;6518;50.930;5.344;2023-01-13T09:57:41;13.23;;;3.57;;
12900;SDS011;6518;50.930;5.344;2023-01-13T10:00:10;19.03;;;3.17;;
12900;SDS011;6518;50.930;5.344;2023-01-13T10:02:54;17.07;;;3.20;;
12900;SDS011;6518;50.930;5.344;2023-01-13T10:05:31;14.10;;;3.07;;
12900;SDS011;6518;50.930;5.344;2023-01-13T10:08:04;13.83;;;3.17;;
12900;SDS011;6518;50.930;5.344;2023-01-13T10:10:36;18.87;;;3.80;;
12900;SDS011;6518;50.930;5.344;2023-01-13T10:13:17;13.77;;;3.40;;
12900;SDS011;6518;50.930;5.344;2023-01-13T10:15:50;17.47;;;3.73;;
12900;SDS011;6518;50.930;5.344;2023-01-13T10:18:24;20.07;;;3.07;;
12900;SDS011;6518;50.930;5.344;2023-01-13T10:20:59;14.47;;;3.40;;
12900;SDS011;6518;50.930;5.344;2023-01-13T10:23:35;17.13;;;3.53;;
12900;SDS011;6518;50.930;5.344;2023-01-13T10:26:15;16.13;;;3.20;;
12900;SDS011;6518;50.930;5.344;2023-01-13T10:29:01;16.27;;;3.27;;
12900;SDS011;6518;50.930;5.344;2023-01-13T10:31:28;18.20;;;4.23;;
12900;SDS011;6518;50.930;5.344;2023-01-13T10:33:58;22.40;;;4.53;;
12900;SDS011;6518;50.930;5.344;2023-01-13T10:36:28;15.93;;;3.43;;
12900;SDS011;6518;50.930;5.344;2023-01-13T10:38:55;15.57;;;3.60;;
12900;SDS011;6518;50.930;5.344;2023-01-13T10:41:34;13.20;;;3.23;;
12900;SDS011;6518;50.930;5.344;2023-01-13T10:44:03;17.17;;;3.50;;
12900;SDS011;6518;50.930;5.344;2023-01-13T10:46:33;19.87;;;3.67;;
12900;SDS011;6518;50.930;5.344;2023-01-13T10:52:22;20.13;;;3.27;;
12900;SDS011;6518;50.930;5.344;2023-01-13T10:54:52;13.07;;;3.47;;
12900;SDS011;6518;50.930;5.344;2023-01-13T10:57:20;20.10;;;3.50;;
12900;SDS011;6518;50.930;5.344;2023-01-13T10:59:49;15.03;;;3.37;;
12900;SDS011;6518;50.930;5.344;2023-01-13T11:02:24;16.37;;;3.63;;
12900;SDS011;6518;50.930;5.344;2023-01-13T11:05:00;14.27;;;3.20;;
12900;SDS011;6518;50.930;5.344;2023-01-13T11:07:34;17.07;;;3.50;;
12900;SDS011;6518;50.930;5.344;2023-01-13T11:10:13;16.93;;;3.37;;
12900;SDS011;6518;50.930;5.344;2023-01-13T11:12:46;17.73;;;3.33;;
12900;SDS011;6518;50.930;5.344;2023-01-13T11:15:19;15.97;;;2.80;;
12900;SDS011;6518;50.930;5.344;2023-01-13T11:17:48;18.33;;;3.47;;
12900;SDS011;6518;50.930;5.344;2023-01-13T11:20:27;16.93;;;3.60;;
12900;SDS011;6518;50.930;5.344;2023-01-13T11:23:02;17.50;;;3.70;;
12900;SDS011;6518;50.930;5.344;2023-01-13T11:25:41;14.50;;;3.83;;
12900;SDS011;6518;50.930;5.344;2023-01-13T11:28:18;18.03;;;4.33;;
12900;SDS011;6518;50.930;5.344;2023-01-13T11:30:53;14.07;;;2.93;;
12900;SDS011;6518;50.930;5.344;2023-01-13T11:33:26;13.33;;;3.57;;
12900;SDS011;6518;50.930;5.344;2023-01-13T11:36:04;15.30;;;3.80;;
12900;SDS011;6518;50.930;5.344;2023-01-13T11:38:39;18.73;;;3.33;;
12900;SDS011;6518;50.930;5.344;2023-01-13T11:44:09;18.50;;;4.10;;
12900;SDS011;6518;50.930;5.344;2023-01-13T11:46:42;16.83;;;3.20;;
12900;SDS011;6518;50.930;5.344;2023-01-13T11:49:14;15.67;;;3.97;;
12900;SDS011;6518;50.930;5.344;2023-01-13T11:51:51;15.03;;;2.90;;
12900;SDS011;6518;50.930;5.344;2023-01-13T11:57:27;15.60;;;3.47;;
12900;SDS011;6518;50.930;5.344;2023-01-13T12:03:04;14.40;;;3.80;;
12900;SDS011;6518;50.930;5.344;2023-01-13T12:05:46;14.80;;;3.03;;
12900;SDS011;6518;50.930;5.344;2023-01-13T12:08:34;11.03;;;3.17;;
12900;SDS011;6518;50.930;5.344;2023-01-13T12:11:23;11.27;;;2.87;;
12900;SDS011;6518;50.930;5.344;2023-01-13T12:14:02;11.07;;;2.50;;
12900;SDS011;6518;50.930;5.344;2023-01-13T12:16:41;10.70;;;3.00;;
12900;SDS011;6518;50.930;5.344;2023-01-13T12:19:22;14.90;;;3.30;;
12900;SDS011;6518;50.930;5.344;2023-01-13T12:22:02;15.20;;;3.03;;
12900;SDS011;6518;50.930;5.344;2023-01-13T12:24:38;12.60;;;3.00;;
12900;SDS011;6518;50.930;5.344;2023-01-13T12:27:15;18.47;;;3.57;;
12900;SDS011;6518;50.930;5.344;2023-01-13T12:29:50;14.40;;;3.37;;
12900;SDS011;6518;50.930;5.344;2023-01-13T12:32:30;17.93;;;4.13;;
12900;SDS011;6518;50.930;5.344;2023-01-13T12:35:04;16.73;;;3.50;;
12900;SDS011;6518;50.930;5.344;2023-01-13T12:37:44;17.97;;;3.97;;
12900;SDS011;6518;50.930;5.344;2023-01-13T12:40:24;21.70;;;3.60;;
12900;SDS011;6518;50.930;5.344;2023-01-13T12:43:02;14.47;;;3.37;;
12900;SDS011;6518;50.930;5.344;2023-01-13T12:49:05;13.37;;;3.50;;
12900;SDS011;6518;50.930;5.344;2023-01-13T12:54:39;16.90;;;3.63;;
12900;SDS011;6518;50.930;5.344;2023-01-13T12:57:32;17.13;;;3.90;;
12900;SDS011;6518;50.930;5.344;2023-01-13T13:00:13;20.40;;;4.23;;
12900;SDS011;6518;50.930;5.344;2023-01-13T13:05:54;16.73;;;3.17;;
12900;SDS011;6518;50.930;5.344;2023-01-13T13:08:43;16.80;;;3.90;;
12900;SDS011;6518;50.930;5.344;2023-01-13T13:11:42;16.77;;;3.97;;
12900;SDS011;6518;50.930;5.344;2023-01-13T13:17:44;17.80;;;3.63;;
12900;SDS011;6518;50.930;5.344;2023-01-13T13:20:52;18.00;;;3.87;;
12900;SDS011;6518;50.930;5.344;2023-01-13T13:23:40;17.37;;;3.67;;
12900;SDS011;6518;50.930;5.344;2023-01-13T13:32:05;12.10;;;3.03;;
12900;SDS011;6518;50.930;5.344;2023-01-13T13:34:50;15.80;;;3.63;;
12900;SDS011;6518;50.930;5.344;2023-01-13T13:37:33;17.97;;;4.13;;
12900;SDS011;6518;50.930;5.344;2023-01-13T13:40:28;16.73;;;3.50;;
12900;SDS011;6518;50.930;5.344;2023-01-13T13:43:15;18.63;;;3.87;;
12900;SDS011;6518;50.930;5.344;2023-01-13T13:46:01;15.40;;;3.47;;
12900;SDS011;6518;50.930;5.344;2023-01-13T13:49:02;19.13;;;3.63;;
12900;SDS011;6518;50.930;5.344;2023-01-13T13:51:30;20.47;;;3.70;;
12900;SDS011;6518;50.930;5.344;2023-01-13T13:54:04;14.10;;;4.27;;
12900;SDS011;6518;50.930;5.344;2023-01-13T13:56:37;20.30;;;4.13;;
12900;SDS011;6518;50.930;5.344;2023-01-13T13:59:07;15.60;;;3.43;;
12900;SDS011;6518;50.930;5.344;2023-01-13T14:01:36;15.73;;;3.10;;
12900;SDS011;6518;50.930;5.344;2023-01-13T14:04:10;19.60;;;3.90;;
12900;SDS011;6518;50.930;5.344;2023-01-13T14:06:47;17.77;;;3.77;;
12900;SDS011;6518;50.930;5.344;2023-01-13T14:09:16;14.93;;;3.47;;
12900;SDS011;6518;50.930;5.344;2023-01-13T14:11:52;16.03;;;3.20;;
12900;SDS011;6518;50.930;5.344;2023-01-13T14:14:24;15.77;;;3.63;;
12900;SDS011;6518;50.930;5.344;2023-01-13T14:16:51;13.70;;;2.83;;
12900;SDS011;6518;50.930;5.344;2023-01-13T14:19:28;18.93;;;4.30;;
12900;SDS011;6518;50.930;5.344;2023-01-13T14:21:57;17.17;;;4.20;;
12900;SDS011;6518;50.930;5.344;2023-01-13T14:24:25;18.93;;;3.97;;
12900;SDS011;6518;50.930;5.344;2023-01-13T14:27:05;22.00;;;4.00;;
12900;SDS011;6518;50.930;5.344;2023-01-13T14:29:33;13.17;;;3.40;;
12900;SDS011;6518;50.930;5.344;2023-01-13T14:32:01;10.90;;;2.90;;
12900;SDS011;6518;50.930;5.344;2023-01-13T14:34:32;12.90;;;3.13;;
12900;SDS011;6518;50.930;5.344;2023-01-13T14:37:01;17.27;;;3.73;;
12900;SDS011;6518;50.930;5.344;2023-01-13T14:39:33;18.33;;;4.17;;
12900;SDS011;6518;50.930;5.344;2023-01-13T14:42:02;18.50;;;3.37;;
12900;SDS011;6518;50.930;5.344;2023-01-13T14:44:30;20.63;;;3.77;;
12900;SDS011;6518;50.930;5.344;2023-01-13T14:47:00;20.80;;;3.40;;
12900;SDS011;6518;50.930;5.344;2023-01-13T14:49:30;18.47;;;3.33;;
12900;SDS011;6518;50.930;5.344;2023-01-13T14:52:03;14.67;;;3.27;;
12900;SDS011;6518;50.930;5.344;2023-01-13T14:54:40;16.13;;;3.30;;
12900;SDS011;6518;50.930;5.344;2023-01-13T14:57:13;12.80;;;2.97;;
12900;SDS011;6518;50.930;5.344;2023-01-13T14:59:48;18.10;;;4.03;;
12900;SDS011;6518;50.930;5.344;2023-01-13T15:05:37;16.37;;;3.53;;
12900;SDS011;6518;50.930;5.344;2023-01-13T15:11:00;17.23;;;3.47;;
12900;SDS011;6518;50.930;5.344;2023-01-13T15:13:30;11.40;;;2.40;;
12900;SDS011;6518;50.930;5.344;2023-01-13T15:16:02;18.47;;;3.23;;
12900;SDS011;6518;50.930;5.344;2023-01-13T15:18:30;12.93;;;3.00;;
12900;SDS011;6518;50.930;5.344;2023-01-13T15:20:59;16.83;;;3.77;;
12900;SDS011;6518;50.930;5.344;2023-01-13T15:23:26;13.93;;;3.20;;
12900;SDS011;6518;50.930;5.344;2023-01-13T15:25:53;17.33;;;2.97;;
12900;SDS011;6518;50.930;5.344;2023-01-13T15:28:21;13.50;;;2.63;;
12900;SDS011;6518;50.930;5.344;2023-01-13T15:30:49;14.40;;;3.00;;
12900;SDS011;6518;50.930;5.344;2023-01-13T15:33:17;18.50;;;3.47;;
12900;SDS011;6518;50.930;5.344;2023-01-13T15:35:45;14.17;;;3.23;;
12900;SDS011;6518;50.930;5.344;2023-01-13T15:38:15;12.03;;;2.63;;
12900;SDS011;6518;50.930;5.344;2023-01-13T15:40:43;16.43;;;3.87;;
12900;SDS011;6518;50.930;5.344;2023-01-13T15:43:11;15.17;;;3.27;;
12900;SDS011;6518;50.930;5.344;2023-01-13T15:45:57;12.07;;;3.00;;
12900;SDS011;6518;50.930;5.344;2023-01-13T15:48:42;11.83;;;2.40;;
12900;SDS011;6518;50.930;5.344;2023-01-13T15:51:09;13.30;;;3.07;;
12900;SDS011;6518;50.930;5.344;2023-01-13T15:53:38;11.33;;;2.90;;
12900;SDS011;6518;50.930;5.344;2023-01-13T15:56:07;13.30;;;2.70;;
12900;SDS011;6518;50.930;5.344;2023-01-13T15:58:39;14.83;;;3.10;;
12900;SDS011;6518;50.930;5.344;2023-01-13T16:01:07;12.67;;;2.33;;
12900;SDS011;6518;50.930;5.344;2023-01-13T16:03:35;17.93;;;3.27;;
12900;SDS011;6518;50.930;5.344;2023-01-13T16:06:03;12.83;;;2.70;;
12900;SDS011;6518;50.930;5.344;2023-01-13T16:08:38;14.77;;;2.73;;
12900;SDS011;6518;50.930;5.344;2023-01-13T16:11:04;13.27;;;3.07;;